Time;durP1;ratioP1;P1;durP2;ratioP2;P2;SDS_P1;SDS_P2;PMS_P1;PMS_P2;Temp;Humidity;BMP_temperature;BMP_pressure;BME280_temperature;BME280_humidity;BME280_pressure;Samples;Min_cycle;Max_cycle;Signal;HPM_P1;HPM_P2
2022/12/29 00:03:13;;;;;;;18.48;8.68;;;;;;;;;;12835354;19;20430;-65
2022/12/29 00:07:30;;;;;;;18.50;8.38;;;;;;;;;;12836359;19;20430;-67
2022/12/29 00:11:49;;;;;;;18.27;8.52;;;;;;;;;;12835385;19;20024;-65
2022/12/29 00:16:07;;;;;;;16.50;8.25;;;;;;;;;;12834183;19;20423;-65
2022/12/29 00:48:11;;;;;;;8.48;4.15;;;;;;;;;;12833534;19;20306;-65
2022/12/29 00:52:28;;;;;;;10.75;4.80;;;;;;;;;;12833265;19;20421;-67
2022/12/29 00:56:51;;;;;;;9.82;5.05;;;;;;;;;;12833712;19;20457;-65
2022/12/29 01:01:09;;;;;;;10.00;4.93;;;;;;;;;;12830966;19;20490;-65
2022/12/29 01:05:26;;;;;;;6.88;2.83;;;;;;;;;;12845322;19;20490;-66
2022/12/29 01:14:20;;;;;;;8.18;3.17;;;;;;;;;;12845877;19;20497;-64
2022/12/29 01:18:36;;;;;;;5.35;3.08;;;;;;;;;;12844553;19;20426;-65
2022/12/29 01:22:54;;;;;;;7.55;4.10;;;;;;;;;;12845403;19;20375;-67
2022/12/29 01:27:11;;;;;;;6.70;3.03;;;;;;;;;;12845876;19;20042;-65
2022/12/29 01:31:28;;;;;;;6.00;3.47;;;;;;;;;;12845301;19;20591;-65
2022/12/29 01:35:45;;;;;;;4.55;3.00;;;;;;;;;;12844476;19;20010;-65
2022/12/29 01:40:02;;;;;;;7.78;3.63;;;;;;;;;;12841968;19;20011;-66
2022/12/29 01:45:01;;;;;;;9.90;4.37;;;;;;;;;;12842163;19;20434;-65
2022/12/29 01:49:26;;;;;;;7.93;4.10;;;;;;;;;;12841198;19;20010;-66
2022/12/29 01:53:44;;;;;;;7.70;3.50;;;;;;;;;;12841087;19;20021;-65
2022/12/29 01:58:05;;;;;;;6.07;3.05;;;;;;;;;;12843027;19;20453;-65
2022/12/29 02:02:24;;;;;;;4.22;2.80;;;;;;;;;;12840643;19;20430;-66
2022/12/29 02:06:57;;;;;;;6.75;2.72;;;;;;;;;;12842410;19;20326;-66
2022/12/29 02:11:16;;;;;;;10.93;3.78;;;;;;;;;;12839617;19;20359;-66
2022/12/29 02:16:04;;;;;;;5.95;3.40;;;;;;;;;;12840184;19;20328;-65
2022/12/29 02:21:38;;;;;;;6.63;3.35;;;;;;;;;;12840336;19;20438;-66
2022/12/29 02:26:34;;;;;;;8.70;3.80;;;;;;;;;;12835115;19;20477;-65
2022/12/29 02:31:48;;;;;;;5.72;2.97;;;;;;;;;;12841403;19;20314;-66
2022/12/29 02:36:27;;;;;;;6.88;2.97;;;;;;;;;;12836974;19;20474;-65
2022/12/29 02:41:02;;;;;;;5.72;3.13;;;;;;;;;;12838603;19;20015;-65
2022/12/29 02:45:26;;;;;;;6.15;3.25;;;;;;;;;;12840643;19;20007;-65
2022/12/29 02:50:05;;;;;;;9.55;3.35;;;;;;;;;;12840115;19;20030;-67
2022/12/29 02:54:41;;;;;;;8.05;3.20;;;;;;;;;;12838431;19;20418;-65
2022/12/29 02:58:58;;;;;;;5.00;2.80;;;;;;;;;;12837842;19;20332;-66
2022/12/29 03:03:42;;;;;;;6.22;3.28;;;;;;;;;;12838164;19;20435;-65
2022/12/29 03:08:11;;;;;;;7.03;3.10;;;;;;;;;;12839028;19;20026;-65
2022/12/29 03:17:56;;;;;;;8.00;2.97;;;;;;;;;;12838137;19;20453;-65
2022/12/29 03:22:30;;;;;;;;;;;;;;;;;;12838006;19;20306;-65
2022/12/29 03:26:49;;;;;;;5.50;3.13;;;;;;;;;;12835011;19;20268;-65
2022/12/29 03:31:08;;;;;;;6.28;3.15;;;;;;;;;;12834535;19;20342;-66
2022/12/29 03:35:31;;;;;;;5.70;2.80;;;;;;;;;;12835688;19;20414;-65
2022/12/29 03:39:48;;;;;;;5.85;3.35;;;;;;;;;;12835561;19;20006;-65
2022/12/29 03:44:06;;;;;;;7.90;3.50;;;;;;;;;;12836287;19;20455;-65
2022/12/29 03:48:23;;;;;;;4.40;2.90;;;;;;;;;;12836635;19;20469;-65
2022/12/29 03:52:40;;;;;;;6.38;3.20;;;;;;;;;;12837436;19;20442;-65
2022/12/29 03:56:58;;;;;;;5.70;3.28;;;;;;;;;;12837313;19;20019;-66
2022/12/29 04:01:15;;;;;;;5.00;3.40;;;;;;;;;;12835976;19;20029;-65
2022/12/29 04:05:34;;;;;;;5.38;3.20;;;;;;;;;;12835077;19;20531;-65
2022/12/29 04:09:51;;;;;;;10.98;3.53;;;;;;;;;;12836591;19;20334;-65
2022/12/29 04:14:07;;;;;;;10.05;3.90;;;;;;;;;;12834329;19;20455;-66
2022/12/29 04:18:25;;;;;;;11.15;5.38;;;;;;;;;;12835679;19;20332;-66
2022/12/29 04:22:41;;;;;;;11.65;5.80;;;;;;;;;;12835240;19;20014;-65
2022/12/29 04:27:00;;;;;;;;;;;;;;;;;;12835475;19;20438;-65
2022/12/29 04:31:17;;;;;;;7.25;3.53;;;;;;;;;;12833867;19;20228;-65
2022/12/29 04:35:34;;;;;;;6.22;3.40;;;;;;;;;;12834019;19;20439;-65
2022/12/29 04:39:51;;;;;;;5.53;3.00;;;;;;;;;;12839990;19;20481;-66
2022/12/29 04:44:08;;;;;;;6.68;3.25;;;;;;;;;;12843583;19;20007;-65
2022/12/29 04:48:25;;;;;;;11.43;4.82;;;;;;;;;;12846021;19;20403;-65
2022/12/29 04:52:42;;;;;;;11.45;4.82;;;;;;;;;;12846763;19;20339;-65
2022/12/29 04:56:59;;;;;;;8.40;4.20;;;;;;;;;;12845760;19;20371;-65
2022/12/29 05:01:16;;;;;;;6.53;4.18;;;;;;;;;;12844985;19;20351;-65
2022/12/29 05:05:33;;;;;;;6.90;3.70;;;;;;;;;;12844504;19;20422;-65
2022/12/29 05:09:51;;;;;;;8.55;4.18;;;;;;;;;;12846285;19;20046;-65
2022/12/29 05:14:07;;;;;;;8.45;4.43;;;;;;;;;;12844218;19;20307;-67
2022/12/29 05:18:24;;;;;;;10.52;4.80;;;;;;;;;;12844495;19;20356;-65
2022/12/29 05:22:41;;;;;;;12.85;6.15;;;;;;;;;;12844517;19;20014;-65
2022/12/29 05:26:58;;;;;;;19.17;9.10;;;;;;;;;;12843393;19;20043;-66
2022/12/29 05:31:15;;;;;;;38.95;16.42;;;;;;;;;;12843976;19;20014;-66
2022/12/29 05:35:33;;;;;;;26.08;12.70;;;;;;;;;;12844276;19;20006;-66
2022/12/29 05:39:50;;;;;;;26.92;11.45;;;;;;;;;;12842957;19;20426;-65
2022/12/29 05:44:07;;;;;;;21.38;10.75;;;;;;;;;;12842362;19;20424;-65
2022/12/29 05:48:24;;;;;;;20.85;8.18;;;;;;;;;;12841832;19;20343;-65
2022/12/29 05:52:41;;;;;;;20.05;8.40;;;;;;;;;;12843362;19;20006;-65
2022/12/29 05:56:58;;;;;;;15.90;6.32;;;;;;;;;;12843700;19;20438;-66
2022/12/29 06:01:15;;;;;;;16.45;5.70;;;;;;;;;;12841746;19;20383;-65
2022/12/29 06:05:33;;;;;;;14.90;7.73;;;;;;;;;;12841566;19;20477;-66
2022/12/29 06:09:50;;;;;;;21.50;10.30;;;;;;;;;;12842559;19;20349;-67
2022/12/29 06:14:07;;;;;;;15.75;6.07;;;;;;;;;;12840872;19;20470;-65
2022/12/29 06:18:24;;;;;;;16.75;6.28;;;;;;;;;;12841803;19;20014;-65
2022/12/29 06:22:41;;;;;;;11.93;6.07;;;;;;;;;;12841659;19;20361;-65
2022/12/29 06:26:58;;;;;;;19.95;6.22;;;;;;;;;;12840658;19;20466;-65
2022/12/29 06:31:16;;;;;;;;;;;;;;;;;;12841216;19;20698;-65
2022/12/29 06:35:33;;;;;;;8.77;5.15;;;;;;;;;;12841298;19;20307;-65
2022/12/29 06:39:50;;;;;;;25.35;10.40;;;;;;;;;;12840640;19;20340;-65
2022/12/29 06:44:07;;;;;;;17.45;8.35;;;;;;;;;;12839779;19;20749;-66
2022/12/29 06:48:24;;;;;;;36.95;13.65;;;;;;;;;;12839306;19;20340;-67
2022/12/29 06:52:41;;;;;;;36.78;14.85;;;;;;;;;;12840142;19;20763;-65
2022/12/29 06:56:59;;;;;;;36.83;14.45;;;;;;;;;;12839722;19;20344;-65
2022/12/29 07:01:16;;;;;;;35.03;14.25;;;;;;;;;;12839178;19;20361;-65
2022/12/29 07:05:33;;;;;;;54.28;17.98;;;;;;;;;;12840410;19;20034;-65
2022/12/29 07:09:50;;;;;;;49.85;17.67;;;;;;;;;;12842616;19;20473;-65
2022/12/29 07:14:07;;;;;;;46.03;17.20;;;;;;;;;;12837860;19;20375;-66
2022/12/29 07:18:24;;;;;;;47.38;16.10;;;;;;;;;;12839142;19;20553;-65
2022/12/29 07:22:41;;;;;;;35.45;14.05;;;;;;;;;;12837633;19;20442;-65
2022/12/29 07:26:58;;;;;;;25.63;10.80;;;;;;;;;;12838285;19;20312;-65
2022/12/29 07:31:19;;;;;;;27.38;8.95;;;;;;;;;;12836845;19;20459;-65
2022/12/29 07:35:36;;;;;;;34.97;12.65;;;;;;;;;;12837554;19;20360;-67
2022/12/29 07:39:53;;;;;;;30.88;11.63;;;;;;;;;;12836787;19;20033;-65
2022/12/29 07:44:10;;;;;;;21.25;8.95;;;;;;;;;;12836683;19;20544;-65
2022/12/29 07:48:28;;;;;;;37.95;13.52;;;;;;;;;;12837417;19;20043;-67
2022/12/29 07:52:46;;;;;;;40.33;14.80;;;;;;;;;;12836822;19;20422;-65
2022/12/29 07:57:06;;;;;;;53.60;21.33;;;;;;;;;;12833624;19;20043;-66
2022/12/29 08:01:23;;;;;;;50.20;21.67;;;;;;;;;;12836175;19;20421;-65
2022/12/29 08:05:40;;;;;;;33.13;13.90;;;;;;;;;;12835065;19;20039;-65
2022/12/29 08:09:58;;;;;;;39.00;15.35;;;;;;;;;;12836802;19;20494;-66
2022/12/29 08:14:15;;;;;;;44.03;15.90;;;;;;;;;;12842300;19;20336;-66
2022/12/29 08:18:31;;;;;;;21.88;10.93;;;;;;;;;;12848761;19;20443;-66
2022/12/29 08:22:49;;;;;;;31.02;12.68;;;;;;;;;;12847864;19;20379;-66
2022/12/29 08:27:06;;;;;;;14.52;7.03;;;;;;;;;;12846162;19;20444;-66
2022/12/29 08:31:35;;;;;;;17.33;7.85;;;;;;;;;;12847510;19;20327;-65
2022/12/29 08:35:59;;;;;;;18.17;7.88;;;;;;;;;;12847182;19;20426;-65
2022/12/29 08:40:16;;;;;;;19.65;8.38;;;;;;;;;;12843265;19;20426;-66
2022/12/29 08:44:33;;;;;;;17.73;8.73;;;;;;;;;;12847331;19;20014;-65
2022/12/29 08:48:50;;;;;;;27.90;11.02;;;;;;;;;;12846134;19;20463;-65
2022/12/29 08:53:07;;;;;;;18.45;8.88;;;;;;;;;;12845733;19;20007;-65
2022/12/29 08:57:24;;;;;;;24.40;11.13;;;;;;;;;;12845680;19;20147;-65
2022/12/29 09:01:42;;;;;;;21.13;9.47;;;;;;;;;;12846063;19;20445;-67
2022/12/29 09:05:59;;;;;;;17.45;9.38;;;;;;;;;;12846098;19;20730;-66
2022/12/29 09:10:16;;;;;;;26.92;12.57;;;;;;;;;;12844613;19;20038;-65
2022/12/29 09:14:33;;;;;;;63.22;25.60;;;;;;;;;;12845173;19;20019;-65
2022/12/29 09:18:50;;;;;;;39.13;15.48;;;;;;;;;;12846257;19;20433;-66
2022/12/29 09:23:07;;;;;;;17.65;8.75;;;;;;;;;;12845301;19;20394;-65
2022/12/29 09:27:24;;;;;;;16.60;7.40;;;;;;;;;;12842970;19;20098;-66
2022/12/29 09:31:41;;;;;;;15.63;7.80;;;;;;;;;;12844763;19;20596;-65
2022/12/29 09:35:58;;;;;;;19.42;8.25;;;;;;;;;;12844238;19;20303;-65
2022/12/29 09:40:29;;;;;;;20.40;9.75;;;;;;;;;;12841710;19;20465;-67
2022/12/29 09:45:29;;;;;;;14.18;7.15;;;;;;;;;;12843096;19;20299;-65
2022/12/29 09:50:12;;;;;;;14.32;8.18;;;;;;;;;;12842127;19;20434;-65
2022/12/29 09:54:46;;;;;;;11.38;5.85;;;;;;;;;;12841082;19;20310;-65
2022/12/29 09:59:20;;;;;;;14.20;6.55;;;;;;;;;;12842354;19;20430;-66
2022/12/29 10:03:51;;;;;;;11.90;6.60;;;;;;;;;;12843138;19;20311;-66
2022/12/29 10:08:46;;;;;;;24.77;10.50;;;;;;;;;;12841377;19;20494;-65
2022/12/29 10:13:41;;;;;;;47.85;22.33;;;;;;;;;;12842153;19;20424;-66
2022/12/29 10:18:34;;;;;;;128.10;50.78;;;;;;;;;;12841688;19;20038;-66
2022/12/29 10:23:03;;;;;;;73.18;36.05;;;;;;;;;;12841068;19;20463;-65
2022/12/29 10:27:21;;;;;;;19.42;11.98;;;;;;;;;;12842044;19;20824;-66
2022/12/29 10:32:06;;;;;;;21.63;11.02;;;;;;;;;;12840084;19;20007;-66
2022/12/29 10:36:38;;;;;;;22.27;10.20;;;;;;;;;;12839908;19;20299;-67
2022/12/29 10:40:59;;;;;;;17.20;9.07;;;;;;;;;;12838139;19;20517;-66
2022/12/29 10:45:19;;;;;;;24.98;15.25;;;;;;;;;;12838460;19;20323;-67
2022/12/29 10:49:41;;;;;;;18.98;10.63;;;;;;;;;;12840061;19;20614;-65
2022/12/29 10:54:06;;;;;;;30.58;14.18;;;;;;;;;;12838653;19;20463;-66
2022/12/29 10:58:24;;;;;;;17.17;8.75;;;;;;;;;;12838327;19;20033;-66
2022/12/29 11:03:12;;;;;;;14.23;6.57;;;;;;;;;;12839115;19;20353;-65
2022/12/29 11:07:30;;;;;;;15.85;7.35;;;;;;;;;;12838349;19;20058;-65
2022/12/29 11:11:48;;;;;;;;;;;;;;;;;;12840919;19;20307;-66
2022/12/29 11:16:05;;;;;;;21.70;10.23;;;;;;;;;;12838524;19;20231;-65
2022/12/29 11:20:39;;;;;;;13.47;8.27;;;;;;;;;;12838864;19;20462;-67
2022/12/29 11:25:10;;;;;;;14.20;7.93;;;;;;;;;;12838820;19;20007;-65
2022/12/29 11:29:39;;;;;;;12.82;6.53;;;;;;;;;;12837324;19;20317;-66
2022/12/29 11:33:56;;;;;;;14.77;6.68;;;;;;;;;;12837708;19;20441;-65
2022/12/29 11:38:25;;;;;;;19.80;7.53;;;;;;;;;;12834473;19;20433;-65
2022/12/29 11:42:58;;;;;;;26.77;11.35;;;;;;;;;;12837753;19;20473;-65
2022/12/29 11:47:32;;;;;;;33.88;15.25;;;;;;;;;;12834405;19;20454;-66
2022/12/29 11:51:51;;;;;;;11.10;4.68;;;;;;;;;;12837075;19;20014;-65
2022/12/29 11:56:14;;;;;;;22.10;11.43;;;;;;;;;;12834541;19;20344;-66
2022/12/29 12:00:35;;;;;;;21.13;10.38;;;;;;;;;;12834434;19;20378;-66
2022/12/29 12:05:02;;;;;;;12.50;6.78;;;;;;;;;;12835046;19;20672;-67
2022/12/29 12:09:27;;;;;;;11.75;6.65;;;;;;;;;;12833844;19;20431;-65
2022/12/29 12:14:04;;;;;;;12.65;8.02;;;;;;;;;;12834461;19;20335;-66
2022/12/29 12:18:36;;;;;;;12.63;5.32;;;;;;;;;;12832380;19;20318;-65
2022/12/29 12:23:22;;;;;;;24.10;8.98;;;;;;;;;;12834914;19;20463;-65
2022/12/29 12:28:15;;;;;;;17.83;6.88;;;;;;;;;;12832656;19;20017;-65
2022/12/29 12:32:58;;;;;;;10.85;5.93;;;;;;;;;;12829832;19;20419;-65
2022/12/29 12:37:34;;;;;;;14.95;6.38;;;;;;;;;;12833453;19;20007;-66
2022/12/29 12:42:30;;;;;;;14.60;6.78;;;;;;;;;;12833704;19;20423;-67
2022/12/29 12:47:20;;;;;;;10.10;5.05;;;;;;;;;;12832931;19;20320;-67
2022/12/29 12:51:55;;;;;;;12.00;5.82;;;;;;;;;;12833829;19;20314;-65
2022/12/29 12:56:48;;;;;;;10.52;5.10;;;;;;;;;;12829274;19;20380;-66
2022/12/29 13:01:14;;;;;;;9.85;5.25;;;;;;;;;;12836246;19;20316;-65
2022/12/29 13:05:40;;;;;;;11.75;6.13;;;;;;;;;;12846664;19;20558;-66
2022/12/29 13:10:15;;;;;;;13.65;7.05;;;;;;;;;;12846238;19;20006;-66
2022/12/29 13:14:55;;;;;;;10.77;5.15;;;;;;;;;;12842578;19;20442;-65
2022/12/29 13:19:51;;;;;;;11.70;4.30;;;;;;;;;;12843312;19;20470;-65
2022/12/29 13:24:48;;;;;;;13.70;5.90;;;;;;;;;;12841043;19;20015;-66
2022/12/29 13:29:30;;;;;;;9.15;5.38;;;;;;;;;;12842167;19;20481;-66
2022/12/29 13:34:03;;;;;;;11.25;6.38;;;;;;;;;;12842436;19;20411;-65
2022/12/29 13:38:28;;;;;;;13.90;8.30;;;;;;;;;;12844896;19;20011;-66
2022/12/29 13:42:46;;;;;;;10.57;7.07;;;;;;;;;;12841504;19;20426;-66
2022/12/29 13:47:28;;;;;;;13.52;6.25;;;;;;;;;;8589718;19;10001973;-65
2022/12/29 13:51:50;;;;;;;15.45;8.68;;;;;;;;;;12842323;19;20006;-66
2022/12/29 13:56:20;;;;;;;28.77;13.85;;;;;;;;;;12840211;19;20459;-66
2022/12/29 14:00:59;;;;;;;15.48;7.45;;;;;;;;;;12841221;19;20422;-66
2022/12/29 14:05:19;;;;;;;12.35;5.10;;;;;;;;;;12840537;19;20311;-66
2022/12/29 14:09:47;;;;;;;23.08;11.88;;;;;;;;;;12840963;19;20458;-65
2022/12/29 14:14:28;;;;;;;22.38;10.80;;;;;;;;;;12838806;19;20018;-65
2022/12/29 14:18:45;;;;;;;28.13;14.55;;;;;;;;;;12841720;19;20462;-65
2022/12/29 14:23:09;;;;;;;37.95;18.95;;;;;;;;;;12838467;19;20323;-65
2022/12/29 14:27:29;;;;;;;30.83;18.17;;;;;;;;;;12840603;19;20324;-65
2022/12/29 14:31:46;;;;;;;16.70;10.65;;;;;;;;;;12841593;19;20536;-66
2022/12/29 14:36:37;;;;;;;47.35;23.95;;;;;;;;;;12840516;19;20445;-65
2022/12/29 14:41:24;;;;;;;35.80;19.05;;;;;;;;;;12840535;19;20434;-66
2022/12/29 14:45:42;;;;;;;36.47;20.40;;;;;;;;;;12838341;19;20467;-65
2022/12/29 14:50:13;;;;;;;57.60;30.47;;;;;;;;;;12841263;19;20038;-66
2022/12/29 14:54:33;;;;;;;38.65;21.13;;;;;;;;;;12837916;19;20520;-66
2022/12/29 14:59:01;;;;;;;62.53;32.60;;;;;;;;;;12840622;19;20014;-66
2022/12/29 15:03:45;;;;;;;;;;;;;;;;;;12840786;19;20321;-65
2022/12/29 15:08:03;;;;;;;41.60;24.55;;;;;;;;;;12838092;19;20283;-66
2022/12/29 15:12:40;;;;;;;55.28;27.50;;;;;;;;;;12838611;19;20047;-66
2022/12/29 15:16:58;;;;;;;41.90;21.92;;;;;;;;;;12839101;19;20423;-66
2022/12/29 15:21:16;;;;;;;38.63;19.40;;;;;;;;;;12836722;19;20318;-66
2022/12/29 15:25:33;;;;;;;54.95;28.17;;;;;;;;;;12837548;19;20351;-65
2022/12/29 15:30:03;;;;;;;43.53;22.75;;;;;;;;;;12837420;19;20284;-66
2022/12/29 15:34:21;;;;;;;36.85;19.30;;;;;;;;;;12837748;19;20314;-66
2022/12/29 15:38:38;;;;;;;94.88;39.67;;;;;;;;;;12837119;19;20376;-66
2022/12/29 15:43:13;;;;;;;87.40;40.03;;;;;;;;;;12836882;19;20426;-66
2022/12/29 15:47:33;;;;;;;166.10;56.63;;;;;;;;;;12834902;19;20393;-65
2022/12/29 15:51:50;;;;;;;72.05;28.08;;;;;;;;;;12835428;19;20434;-66
2022/12/29 15:56:10;;;;;;;50.88;22.92;;;;;;;;;;12836102;19;20736;-66
2022/12/29 16:00:35;;;;;;;59.53;25.55;;;;;;;;;;12836929;19;20423;-68
2022/12/29 16:04:53;;;;;;;53.80;24.48;;;;;;;;;;12834722;19;20434;-66
2022/12/29 16:09:42;;;;;;;85.60;38.92;;;;;;;;;;12834254;19;20073;-66
2022/12/29 16:14:00;;;;;;;72.57;30.52;;;;;;;;;;12835989;19;20430;-68
2022/12/29 16:18:46;;;;;;;97.88;37.92;;;;;;;;;;12834329;19;20014;-65
2022/12/29 16:23:26;;;;;;;98.78;41.25;;;;;;;;;;12833023;19;20332;-66
2022/12/29 16:27:44;;;;;;;71.95;29.65;;;;;;;;;;12834853;19;20431;-66
2022/12/29 16:32:05;;;;;;;89.78;37.08;;;;;;;;;;12833018;19;20482;-67
2022/12/29 16:36:40;;;;;;;88.43;37.20;;;;;;;;;;12844229;19;20311;-66
2022/12/29 16:41:01;;;;;;;86.47;33.53;;;;;;;;;;12843750;19;20447;-67
2022/12/29 16:45:18;;;;;;;57.67;24.17;;;;;;;;;;12844035;19;20457;-66
2022/12/29 16:49:40;;;;;;;63.10;26.15;;;;;;;;;;12844687;19;20422;-66
2022/12/29 16:53:58;;;;;;;63.67;26.95;;;;;;;;;;12845227;19;20110;-67
2022/12/29 16:58:23;;;;;;;133.30;55.65;;;;;;;;;;12842466;19;20317;-66
2022/12/29 17:02:44;;;;;;;144.45;57.22;;;;;;;;;;12845999;19;20039;-66
2022/12/29 17:07:02;;;;;;;84.93;38.13;;;;;;;;;;12843186;19;20353;-67
2022/12/29 17:16:15;;;;;;;65.03;31.58;;;;;;;;;;12816070;19;239064;-66
2022/12/29 17:20:32;;;;;;;31.38;16.95;;;;;;;;;;12843568;19;20466;-67
2022/12/29 17:24:54;;;;;;;43.20;20.33;;;;;;;;;;12844331;19;20039;-65
2022/12/29 17:29:39;;;;;;;33.20;14.10;;;;;;;;;;12841955;19;20473;-66
2022/12/29 17:33:56;;;;;;;25.88;12.68;;;;;;;;;;12841031;19;20428;-66
2022/12/29 17:38:28;;;;;;;26.35;14.35;;;;;;;;;;12839323;19;20462;-66
2022/12/29 17:42:54;;;;;;;30.15;12.60;;;;;;;;;;12843099;19;20456;-67
2022/12/29 17:47:12;;;;;;;23.30;11.00;;;;;;;;;;12835048;19;20296;-66
2022/12/29 17:51:28;;;;;;;37.08;18.63;;;;;;;;;;12843323;19;20026;-65
2022/12/29 17:55:46;;;;;;;43.17;20.48;;;;;;;;;;12842007;19;20363;-66
2022/12/29 18:00:03;;;;;;;33.67;18.48;;;;;;;;;;12842852;19;20360;-66
2022/12/29 18:04:20;;;;;;;50.78;26.48;;;;;;;;;;12842423;19;20467;-66
2022/12/29 18:08:39;;;;;;;40.28;21.30;;;;;;;;;;12842482;19;20341;-66
2022/12/29 18:12:59;;;;;;;48.92;23.42;;;;;;;;;;12845048;19;20015;-67
2022/12/29 18:17:16;;;;;;;49.08;22.50;;;;;;;;;;12841649;19;20021;-70
2022/12/29 18:21:33;;;;;;;50.75;23.92;;;;;;;;;;12844538;19;20447;-66
2022/12/29 18:26:16;;;;;;;59.55;20.95;;;;;;;;;;12842029;19;20355;-66
2022/12/29 18:30:41;;;;;;;56.30;26.70;;;;;;;;;;12840000;19;20438;-68
2022/12/29 18:34:58;;;;;;;40.00;20.02;;;;;;;;;;12840293;19;20522;-66
2022/12/29 18:39:15;;;;;;;50.17;24.40;;;;;;;;;;12838901;19;20448;-66
2022/12/29 18:43:32;;;;;;;61.92;24.60;;;;;;;;;;12841219;19;20014;-67
2022/12/29 18:47:49;;;;;;;61.50;24.60;;;;;;;;;;12837600;19;20344;-66
2022/12/29 18:52:12;;;;;;;40.78;17.42;;;;;;;;;;12839438;19;20311;-65
2022/12/29 18:56:29;;;;;;;19.48;9.50;;;;;;;;;;12836159;19;20432;-66
2022/12/29 19:00:46;;;;;;;74.25;31.17;;;;;;;;;;12840408;19;20438;-66
2022/12/29 19:05:16;;;;;;;53.17;22.67;;;;;;;;;;12836267;19;20023;-68
2022/12/29 19:09:33;;;;;;;52.53;24.23;;;;;;;;;;12834303;19;20311;-66
2022/12/29 19:13:50;;;;;;;65.55;32.47;;;;;;;;;;12838005;19;20296;-66
2022/12/29 19:18:18;;;;;;;57.40;29.20;;;;;;;;;;12837538;19;20435;-66
2022/12/29 19:22:58;;;;;;;101.95;46.33;;;;;;;;;;12838261;19;20440;-66
2022/12/29 19:27:15;;;;;;;200.05;78.05;;;;;;;;;;12836801;19;20457;-67
2022/12/29 19:31:32;;;;;;;109.95;39.97;;;;;;;;;;12839673;19;20034;-66
2022/12/29 19:35:51;;;;;;;53.20;23.00;;;;;;;;;;12837984;19;20415;-67
2022/12/29 19:40:13;;;;;;;51.83;23.48;;;;;;;;;;12837533;19;20315;-66
2022/12/29 19:44:30;;;;;;;77.07;36.50;;;;;;;;;;12837875;19;20039;-66
2022/12/29 19:48:47;;;;;;;107.97;46.33;;;;;;;;;;12837238;19;20462;-66
2022/12/29 19:53:04;;;;;;;82.78;40.17;;;;;;;;;;12836097;19;20042;-68
2022/12/29 19:57:22;;;;;;;47.08;23.42;;;;;;;;;;12836792;19;20498;-67
2022/12/29 20:01:39;;;;;;;65.43;29.35;;;;;;;;;;12837165;19;20440;-66
2022/12/29 20:05:56;;;;;;;59.33;29.45;;;;;;;;;;12835917;19;20002;-66
2022/12/29 20:10:13;;;;;;;85.30;38.60;;;;;;;;;;12842704;19;20395;-66
2022/12/29 20:14:31;;;;;;;66.68;29.77;;;;;;;;;;12848390;19;20437;-68
2022/12/29 20:18:48;;;;;;;34.33;15.70;;;;;;;;;;12848282;19;20438;-67
2022/12/29 20:23:05;;;;;;;36.08;13.20;;;;;;;;;;12847187;19;20006;-66
2022/12/29 20:27:22;;;;;;;22.02;9.52;;;;;;;;;;12848197;19;20111;-67
2022/12/29 20:31:41;;;;;;;20.05;9.63;;;;;;;;;;12847684;19;20007;-66
2022/12/29 20:36:14;;;;;;;21.83;10.32;;;;;;;;;;12847490;19;20438;-67
2022/12/29 20:40:31;;;;;;;22.63;10.95;;;;;;;;;;12841924;19;20414;-66
2022/12/29 20:44:49;;;;;;;21.63;11.60;;;;;;;;;;12847330;19;20494;-67
2022/12/29 20:49:07;;;;;;;25.92;11.88;;;;;;;;;;12844799;19;20037;-66
2022/12/29 20:53:28;;;;;;;21.40;10.65;;;;;;;;;;12846386;19;20332;-69
2022/12/29 20:57:45;;;;;;;50.95;21.60;;;;;;;;;;12844925;19;20342;-66
2022/12/29 21:02:23;;;;;;;38.33;16.35;;;;;;;;;;12845919;19;20489;-66
2022/12/29 21:06:40;;;;;;;94.70;39.58;;;;;;;;;;12845793;19;20074;-66
2022/12/29 21:10:57;;;;;;;53.90;22.77;;;;;;;;;;12843546;19;20003;-66
2022/12/29 21:15:15;;;;;;;38.83;19.03;;;;;;;;;;12844716;19;20466;-67
2022/12/29 21:19:31;;;;;;;30.70;15.80;;;;;;;;;;12841436;19;20006;-66
2022/12/29 21:23:51;;;;;;;33.80;15.85;;;;;;;;;;12846268;19;20438;-67
2022/12/29 21:28:11;;;;;;;32.92;15.60;;;;;;;;;;12841805;19;20006;-66
2022/12/29 21:32:28;;;;;;;36.00;16.27;;;;;;;;;;12809432;19;20678;-66
2022/12/29 21:36:45;;;;;;;37.03;17.92;;;;;;;;;;12844557;19;20006;-65
2022/12/29 21:41:08;;;;;;;29.77;14.77;;;;;;;;;;12842464;19;20319;-67
2022/12/29 21:45:25;;;;;;;33.97;15.27;;;;;;;;;;12843561;19;20430;-66
2022/12/29 21:49:42;;;;;;;39.03;19.60;;;;;;;;;;12843637;19;20427;-66
2022/12/29 22:17:06;;;;;;;53.53;19.17;;;;;;;;;;12840790;19;20296;-66
2022/12/29 22:21:29;;;;;;;70.30;25.35;;;;;;;;;;12842008;19;20300;-66
2022/12/29 22:25:47;;;;;;;49.03;20.92;;;;;;;;;;12842681;19;20494;-67
2022/12/29 22:30:06;;;;;;;43.63;18.73;;;;;;;;;;12839287;19;20013;-65
2022/12/29 22:34:24;;;;;;;69.55;27.77;;;;;;;;;;12840722;19;20468;-66
2022/12/29 22:38:41;;;;;;;52.63;21.60;;;;;;;;;;12841091;19;20363;-66
2022/12/29 22:42:58;;;;;;;50.70;24.13;;;;;;;;;;12840471;19;20024;-67
2022/12/29 22:47:15;;;;;;;62.63;22.70;;;;;;;;;;12838852;19;20378;-66
2022/12/29 22:51:32;;;;;;;51.58;22.77;;;;;;;;;;12841508;19;20014;-65
2022/12/29 22:55:49;;;;;;;43.47;23.35;;;;;;;;;;12840457;19;20418;-65
2022/12/29 23:00:07;;;;;;;42.28;20.05;;;;;;;;;;12838467;19;20438;-67
2022/12/29 23:04:24;;;;;;;36.40;17.92;;;;;;;;;;12839849;19;20047;-66
2022/12/29 23:09:04;;;;;;;52.35;25.25;;;;;;;;;;12838161;19;20391;-66
2022/12/29 23:13:21;;;;;;;45.03;20.27;;;;;;;;;;12837124;19;20419;-66
2022/12/29 23:17:38;;;;;;;43.00;20.08;;;;;;;;;;12838697;19;20010;-65
2022/12/29 23:21:55;;;;;;;31.33;15.95;;;;;;;;;;12839422;19;20430;-65
2022/12/29 23:26:12;;;;;;;30.10;14.35;;;;;;;;;;12837162;19;20034;-66
2022/12/29 23:30:29;;;;;;;34.30;16.27;;;;;;;;;;12837429;19;20391;-66
2022/12/29 23:34:46;;;;;;;37.37;19.53;;;;;;;;;;12838617;19;20318;-65
2022/12/29 23:39:04;;;;;;;36.53;16.33;;;;;;;;;;12836608;19;20475;-66
2022/12/29 23:43:21;;;;;;;30.30;14.05;;;;;;;;;;12835077;19;20351;-65
2022/12/29 23:47:38;;;;;;;23.63;11.75;;;;;;;;;;12837732;19;20474;-67
2022/12/29 23:51:55;;;;;;;25.83;12.77;;;;;;;;;;12837845;19;20303;-66
2022/12/29 23:56:20;;;;;;;41.45;15.55;;;;;;;;;;12836018;19;20419;-66
